sensor_id;sensor_type;location;lat;lon;timestamp;P1;durP1;ratioP1;P2;durP2;ratioP2
77415;SDS011;66489;49.230;8.520;2023-04-08T00:01:50;13.02;;;8.73;;
77415;SDS011;66489;49.230;8.520;2023-04-08T00:04:18;13.85;;;9.43;;
77415;SDS011;66489;49.230;8.520;2023-04-08T00:06:45;13.43;;;8.98;;
77415;SDS011;66489;49.230;8.520;2023-04-08T00:09:11;14.77;;;9.70;;
77415;SDS011;66489;49.230;8.520;2023-04-08T00:11:38;13.38;;;9.13;;
77415;SDS011;66489;49.230;8.520;2023-04-08T00:14:04;14.73;;;9.10;;
77415;SDS011;66489;49.230;8.520;2023-04-08T00:16:31;15.40;;;10.05;;
77415;SDS011;66489;49.230;8.520;2023-04-08T00:18:58;13.90;;;9.27;;
77415;SDS011;66489;49.230;8.520;2023-04-08T00:21:24;15.85;;;9.65;;
77415;SDS011;66489;49.230;8.520;2023-04-08T00:23:52;15.18;;;9.20;;
77415;SDS011;66489;49.230;8.520;2023-04-08T00:26:18;14.80;;;9.52;;
77415;SDS011;66489;49.230;8.520;2023-04-08T00:28:45;15.00;;;9.68;;
77415;SDS011;66489;49.230;8.520;2023-04-08T00:31:12;17.08;;;9.65;;
77415;SDS011;66489;49.230;8.520;2023-04-08T00:33:38;16.90;;;10.70;;
77415;SDS011;66489;49.230;8.520;2023-04-08T00:36:05;16.15;;;10.05;;
77415;SDS011;66489;49.230;8.520;2023-04-08T00:38:32;15.70;;;10.30;;
77415;SDS011;66489;49.230;8.520;2023-04-08T00:41:01;16.13;;;9.85;;
77415;SDS011;66489;49.230;8.520;2023-04-08T00:43:28;17.15;;;10.88;;
77415;SDS011;66489;49.230;8.520;2023-04-08T00:45:54;18.15;;;10.98;;
77415;SDS011;66489;49.230;8.520;2023-04-08T00:48:21;18.15;;;9.85;;
77415;SDS011;66489;49.230;8.520;2023-04-08T00:50:47;17.60;;;10.60;;
77415;SDS011;66489;49.230;8.520;2023-04-08T00:53:14;20.98;;;11.07;;
77415;SDS011;66489;49.230;8.520;2023-04-08T00:55:43;16.35;;;10.02;;
77415;SDS011;66489;49.230;8.520;2023-04-08T00:58:09;19.05;;;10.38;;
77415;SDS011;66489;49.230;8.520;2023-04-08T01:00:37;16.90;;;9.73;;
77415;SDS011;66489;49.230;8.520;2023-04-08T01:03:23;17.80;;;10.23;;
77415;SDS011;66489;49.230;8.520;2023-04-08T01:05:55;19.00;;;10.70;;
77415;SDS011;66489;49.230;8.520;2023-04-08T01:08:26;18.58;;;9.70;;
77415;SDS011;66489;49.230;8.520;2023-04-08T01:10:58;16.95;;;9.57;;
77415;SDS011;66489;49.230;8.520;2023-04-08T01:13:27;16.65;;;10.27;;
77415;SDS011;66489;49.230;8.520;2023-04-08T01:15:55;15.10;;;9.43;;
77415;SDS011;66489;49.230;8.520;2023-04-08T01:18:22;16.60;;;10.27;;
77415;SDS011;66489;49.230;8.520;2023-04-08T01:20:49;17.50;;;10.10;;
77415;SDS011;66489;49.230;8.520;2023-04-08T01:23:32;16.75;;;10.23;;
77415;SDS011;66489;49.230;8.520;2023-04-08T01:26:05;17.65;;;10.23;;
77415;SDS011;66489;49.230;8.520;2023-04-08T01:28:33;17.30;;;10.55;;
77415;SDS011;66489;49.230;8.520;2023-04-08T01:31:00;17.13;;;9.75;;
77415;SDS011;66489;49.230;8.520;2023-04-08T01:33:27;19.38;;;10.60;;
77415;SDS011;66489;49.230;8.520;2023-04-08T01:35:55;16.48;;;10.55;;
77415;SDS011;66489;49.230;8.520;2023-04-08T01:38:23;17.80;;;10.07;;
77415;SDS011;66489;49.230;8.520;2023-04-08T01:40:52;18.08;;;10.38;;
77415;SDS011;66489;49.230;8.520;2023-04-08T01:43:20;17.65;;;10.00;;
77415;SDS011;66489;49.230;8.520;2023-04-08T01:45:47;19.27;;;9.98;;
77415;SDS011;66489;49.230;8.520;2023-04-08T01:48:16;20.70;;;10.43;;
77415;SDS011;66489;49.230;8.520;2023-04-08T01:50:43;17.27;;;10.02;;
77415;SDS011;66489;49.230;8.520;2023-04-08T01:53:11;18.10;;;10.53;;
77415;SDS011;66489;49.230;8.520;2023-04-08T01:55:39;17.33;;;10.45;;
77415;SDS011;66489;49.230;8.520;2023-04-08T01:58:06;19.15;;;10.25;;
77415;SDS011;66489;49.230;8.520;2023-04-08T02:00:34;18.23;;;10.80;;
77415;SDS011;66489;49.230;8.520;2023-04-08T02:03:01;18.92;;;10.77;;
77415;SDS011;66489;49.230;8.520;2023-04-08T02:05:31;18.13;;;10.80;;
77415;SDS011;66489;49.230;8.520;2023-04-08T02:07:58;17.42;;;9.88;;
77415;SDS011;66489;49.230;8.520;2023-04-08T02:10:26;19.88;;;10.82;;
77415;SDS011;66489;49.230;8.520;2023-04-08T02:12:52;19.55;;;10.52;;
77415;SDS011;66489;49.230;8.520;2023-04-08T02:15:19;19.80;;;11.35;;
77415;SDS011;66489;49.230;8.520;2023-04-08T02:17:58;17.83;;;10.23;;
77415;SDS011;66489;49.230;8.520;2023-04-08T02:20:30;18.42;;;11.15;;
77415;SDS011;66489;49.230;8.520;2023-04-08T02:23:13;20.55;;;10.50;;
77415;SDS011;66489;49.230;8.520;2023-04-08T02:25:43;16.50;;;10.63;;
77415;SDS011;66489;49.230;8.520;2023-04-08T02:28:11;18.63;;;10.98;;
77415;SDS011;66489;49.230;8.520;2023-04-08T02:30:40;18.35;;;10.60;;
77415;SDS011;66489;49.230;8.520;2023-04-08T02:33:07;19.88;;;12.38;;
77415;SDS011;66489;49.230;8.520;2023-04-08T02:35:35;21.35;;;12.43;;
77415;SDS011;66489;49.230;8.520;2023-04-08T02:38:02;19.80;;;11.80;;
77415;SDS011;66489;49.230;8.520;2023-04-08T02:40:32;21.13;;;12.15;;
77415;SDS011;66489;49.230;8.520;2023-04-08T02:43:02;19.75;;;11.43;;
77415;SDS011;66489;49.230;8.520;2023-04-08T02:45:29;17.73;;;10.77;;
77415;SDS011;66489;49.230;8.520;2023-04-08T02:48:00;17.77;;;10.77;;
77415;SDS011;66489;49.230;8.520;2023-04-08T02:50:27;18.98;;;11.02;;
77415;SDS011;66489;49.230;8.520;2023-04-08T02:52:54;19.80;;;10.95;;
77415;SDS011;66489;49.230;8.520;2023-04-08T02:55:21;20.70;;;11.23;;
77415;SDS011;66489;49.230;8.520;2023-04-08T02:57:47;19.10;;;10.77;;
77415;SDS011;66489;49.230;8.520;2023-04-08T03:00:14;19.52;;;11.40;;
77415;SDS011;66489;49.230;8.520;2023-04-08T03:02:41;18.63;;;10.20;;
77415;SDS011;66489;49.230;8.520;2023-04-08T03:05:08;17.23;;;10.57;;
77415;SDS011;66489;49.230;8.520;2023-04-08T03:07:34;19.63;;;10.57;;
77415;SDS011;66489;49.230;8.520;2023-04-08T03:10:01;18.88;;;10.95;;
77415;SDS011;66489;49.230;8.520;2023-04-08T03:12:28;21.88;;;11.77;;
77415;SDS011;66489;49.230;8.520;2023-04-08T03:14:54;18.90;;;11.38;;
77415;SDS011;66489;49.230;8.520;2023-04-08T03:17:21;20.23;;;11.13;;
77415;SDS011;66489;49.230;8.520;2023-04-08T03:19:47;22.17;;;11.65;;
77415;SDS011;66489;49.230;8.520;2023-04-08T03:22:14;19.70;;;10.98;;
77415;SDS011;66489;49.230;8.520;2023-04-08T03:24:41;23.23;;;11.95;;
77415;SDS011;66489;49.230;8.520;2023-04-08T03:27:07;20.27;;;11.73;;
77415;SDS011;66489;49.230;8.520;2023-04-08T03:29:34;18.98;;;10.75;;
77415;SDS011;66489;49.230;8.520;2023-04-08T03:32:00;18.40;;;10.50;;
77415;SDS011;66489;49.230;8.520;2023-04-08T03:34:27;18.42;;;10.50;;
77415;SDS011;66489;49.230;8.520;2023-04-08T03:36:54;20.20;;;10.82;;
77415;SDS011;66489;49.230;8.520;2023-04-08T03:39:20;20.05;;;10.75;;
77415;SDS011;66489;49.230;8.520;2023-04-08T03:41:47;20.52;;;11.23;;
77415;SDS011;66489;49.230;8.520;2023-04-08T03:44:14;20.38;;;11.13;;
77415;SDS011;66489;49.230;8.520;2023-04-08T03:46:43;20.17;;;10.95;;
77415;SDS011;66489;49.230;8.520;2023-04-08T03:49:09;21.73;;;12.07;;
77415;SDS011;66489;49.230;8.520;2023-04-08T03:51:36;19.38;;;11.13;;
77415;SDS011;66489;49.230;8.520;2023-04-08T03:54:02;19.42;;;11.40;;
77415;SDS011;66489;49.230;8.520;2023-04-08T03:56:29;24.45;;;11.93;;
77415;SDS011;66489;49.230;8.520;2023-04-08T03:58:55;23.23;;;12.23;;
77415;SDS011;66489;49.230;8.520;2023-04-08T04:01:22;23.50;;;12.95;;
77415;SDS011;66489;49.230;8.520;2023-04-08T04:03:48;22.98;;;12.57;;
77415;SDS011;66489;49.230;8.520;2023-04-08T04:06:15;25.23;;;12.93;;
77415;SDS011;66489;49.230;8.520;2023-04-08T04:08:42;23.05;;;12.57;;
77415;SDS011;66489;49.230;8.520;2023-04-08T04:11:08;23.35;;;12.15;;
77415;SDS011;66489;49.230;8.520;2023-04-08T04:13:35;22.75;;;12.55;;
77415;SDS011;66489;49.230;8.520;2023-04-08T04:16:02;24.13;;;12.20;;
77415;SDS011;66489;49.230;8.520;2023-04-08T04:18:28;21.30;;;12.02;;
77415;SDS011;66489;49.230;8.520;2023-04-08T04:20:55;24.63;;;13.27;;
77415;SDS011;66489;49.230;8.520;2023-04-08T04:23:21;20.02;;;11.38;;
77415;SDS011;66489;49.230;8.520;2023-04-08T04:25:49;19.35;;;10.88;;
77415;SDS011;66489;49.230;8.520;2023-04-08T04:28:16;20.05;;;10.77;;
77415;SDS011;66489;49.230;8.520;2023-04-08T04:30:42;19.58;;;10.95;;
77415;SDS011;66489;49.230;8.520;2023-04-08T04:33:09;18.85;;;10.85;;
77415;SDS011;66489;49.230;8.520;2023-04-08T04:35:35;19.40;;;10.80;;
77415;SDS011;66489;49.230;8.520;2023-04-08T04:38:02;22.55;;;11.60;;
77415;SDS011;66489;49.230;8.520;2023-04-08T04:40:30;21.42;;;11.50;;
77415;SDS011;66489;49.230;8.520;2023-04-08T04:42:57;20.95;;;11.55;;
77415;SDS011;66489;49.230;8.520;2023-04-08T04:45:23;20.90;;;11.35;;
77415;SDS011;66489;49.230;8.520;2023-04-08T04:47:50;24.85;;;12.13;;
77415;SDS011;66489;49.230;8.520;2023-04-08T04:50:16;22.98;;;12.75;;
77415;SDS011;66489;49.230;8.520;2023-04-08T04:52:43;22.52;;;11.93;;
77415;SDS011;66489;49.230;8.520;2023-04-08T04:55:09;20.45;;;11.65;;
77415;SDS011;66489;49.230;8.520;2023-04-08T04:57:36;20.70;;;12.35;;
77415;SDS011;66489;49.230;8.520;2023-04-08T05:00:02;20.58;;;11.70;;
77415;SDS011;66489;49.230;8.520;2023-04-08T05:02:31;23.10;;;12.48;;
77415;SDS011;66489;49.230;8.520;2023-04-08T05:04:57;20.27;;;11.55;;
77415;SDS011;66489;49.230;8.520;2023-04-08T05:07:24;19.83;;;11.95;;
77415;SDS011;66489;49.230;8.520;2023-04-08T05:09:51;18.30;;;10.95;;
77415;SDS011;66489;49.230;8.520;2023-04-08T05:12:17;20.85;;;11.60;;
77415;SDS011;66489;49.230;8.520;2023-04-08T05:14:45;24.10;;;13.30;;
77415;SDS011;66489;49.230;8.520;2023-04-08T05:17:12;24.60;;;13.00;;
77415;SDS011;66489;49.230;8.520;2023-04-08T05:19:38;23.13;;;12.23;;
77415;SDS011;66489;49.230;8.520;2023-04-08T05:22:05;23.40;;;13.50;;
77415;SDS011;66489;49.230;8.520;2023-04-08T05:24:32;23.98;;;12.18;;
77415;SDS011;66489;49.230;8.520;2023-04-08T05:26:58;25.85;;;14.10;;
77415;SDS011;66489;49.230;8.520;2023-04-08T05:29:26;25.50;;;13.73;;
77415;SDS011;66489;49.230;8.520;2023-04-08T05:31:53;26.13;;;13.95;;
77415;SDS011;66489;49.230;8.520;2023-04-08T05:34:21;24.65;;;13.93;;
77415;SDS011;66489;49.230;8.520;2023-04-08T05:36:49;24.92;;;13.85;;
77415;SDS011;66489;49.230;8.520;2023-04-08T05:39:19;24.15;;;13.60;;
77415;SDS011;66489;49.230;8.520;2023-04-08T05:41:45;27.10;;;14.23;;
77415;SDS011;66489;49.230;8.520;2023-04-08T05:44:12;29.80;;;14.32;;
77415;SDS011;66489;49.230;8.520;2023-04-08T05:46:39;25.83;;;14.23;;
77415;SDS011;66489;49.230;8.520;2023-04-08T05:49:06;26.85;;;15.23;;
77415;SDS011;66489;49.230;8.520;2023-04-08T05:51:32;29.50;;;16.10;;
77415;SDS011;66489;49.230;8.520;2023-04-08T05:53:59;27.95;;;15.75;;
77415;SDS011;66489;49.230;8.520;2023-04-08T05:56:26;29.98;;;15.98;;
77415;SDS011;66489;49.230;8.520;2023-04-08T05:58:52;27.77;;;15.73;;
77415;SDS011;66489;49.230;8.520;2023-04-08T06:01:19;30.40;;;17.15;;
77415;SDS011;66489;49.230;8.520;2023-04-08T06:03:45;27.92;;;15.88;;
77415;SDS011;66489;49.230;8.520;2023-04-08T06:06:12;31.30;;;16.52;;
77415;SDS011;66489;49.230;8.520;2023-04-08T06:08:39;26.42;;;15.45;;
77415;SDS011;66489;49.230;8.520;2023-04-08T06:11:06;30.58;;;16.15;;
77415;SDS011;66489;49.230;8.520;2023-04-08T06:13:33;29.85;;;16.30;;
77415;SDS011;66489;49.230;8.520;2023-04-08T06:16:08;31.23;;;16.13;;
77415;SDS011;66489;49.230;8.520;2023-04-08T06:18:38;29.05;;;16.33;;
77415;SDS011;66489;49.230;8.520;2023-04-08T06:21:05;29.38;;;16.42;;
77415;SDS011;66489;49.230;8.520;2023-04-08T06:23:32;28.30;;;15.95;;
77415;SDS011;66489;49.230;8.520;2023-04-08T06:25:58;34.25;;;19.88;;
77415;SDS011;66489;49.230;8.520;2023-04-08T06:28:25;34.25;;;18.65;;
77415;SDS011;66489;49.230;8.520;2023-04-08T06:30:51;31.30;;;18.27;;
77415;SDS011;66489;49.230;8.520;2023-04-08T06:33:18;26.02;;;15.00;;
77415;SDS011;66489;49.230;8.520;2023-04-08T06:35:44;25.52;;;14.82;;
77415;SDS011;66489;49.230;8.520;2023-04-08T06:38:11;25.17;;;13.70;;
77415;SDS011;66489;49.230;8.520;2023-04-08T06:40:40;23.83;;;13.90;;
77415;SDS011;66489;49.230;8.520;2023-04-08T06:45:37;21.02;;;12.52;;
77415;SDS011;66489;49.230;8.520;2023-04-08T06:48:04;22.55;;;12.52;;
77415;SDS011;66489;49.230;8.520;2023-04-08T06:50:34;22.23;;;12.88;;
77415;SDS011;66489;49.230;8.520;2023-04-08T06:53:01;19.65;;;12.80;;
77415;SDS011;66489;49.230;8.520;2023-04-08T06:55:27;18.27;;;12.25;;
77415;SDS011;66489;49.230;8.520;2023-04-08T06:57:54;18.55;;;12.25;;
77415;SDS011;66489;49.230;8.520;2023-04-08T07:00:20;19.05;;;12.38;;
77415;SDS011;66489;49.230;8.520;2023-04-08T07:02:47;18.70;;;12.45;;
77415;SDS011;66489;49.230;8.520;2023-04-08T07:05:14;18.67;;;12.38;;
77415;SDS011;66489;49.230;8.520;2023-04-08T07:07:40;19.25;;;12.38;;
77415;SDS011;66489;49.230;8.520;2023-04-08T07:10:07;17.60;;;11.77;;
77415;SDS011;66489;49.230;8.520;2023-04-08T07:12:36;17.45;;;11.80;;
77415;SDS011;66489;49.230;8.520;2023-04-08T07:15:03;18.77;;;11.63;;
77415;SDS011;66489;49.230;8.520;2023-04-08T07:17:29;18.38;;;11.82;;
77415;SDS011;66489;49.230;8.520;2023-04-08T07:19:56;17.67;;;11.45;;
77415;SDS011;66489;49.230;8.520;2023-04-08T07:22:22;17.25;;;11.75;;
77415;SDS011;66489;49.230;8.520;2023-04-08T07:24:49;16.35;;;10.50;;
77415;SDS011;66489;49.230;8.520;2023-04-08T07:27:15;13.18;;;9.82;;
77415;SDS011;66489;49.230;8.520;2023-04-08T07:29:42;15.13;;;10.27;;
77415;SDS011;66489;49.230;8.520;2023-04-08T07:32:09;14.82;;;10.20;;
77415;SDS011;66489;49.230;8.520;2023-04-08T07:34:35;14.18;;;9.85;;
77415;SDS011;66489;49.230;8.520;2023-04-08T07:37:02;11.85;;;9.50;;
77415;SDS011;66489;49.230;8.520;2023-04-08T07:39:29;12.05;;;9.18;;
77415;SDS011;66489;49.230;8.520;2023-04-08T07:41:56;15.02;;;9.68;;
77415;SDS011;66489;49.230;8.520;2023-04-08T07:44:22;12.75;;;9.25;;
77415;SDS011;66489;49.230;8.520;2023-04-08T07:46:49;12.43;;;9.82;;
77415;SDS011;66489;49.230;8.520;2023-04-08T07:49:17;11.80;;;9.75;;
77415;SDS011;66489;49.230;8.520;2023-04-08T07:51:43;14.60;;;9.90;;
77415;SDS011;66489;49.230;8.520;2023-04-08T07:54:10;17.50;;;10.07;;
77415;SDS011;66489;49.230;8.520;2023-04-08T07:56:37;10.85;;;9.20;;
77415;SDS011;66489;49.230;8.520;2023-04-08T07:59:05;12.02;;;9.27;;
77415;SDS011;66489;49.230;8.520;2023-04-08T08:01:33;11.98;;;9.50;;
77415;SDS011;66489;49.230;8.520;2023-04-08T08:04:01;12.30;;;9.60;;
77415;SDS011;66489;49.230;8.520;2023-04-08T08:06:29;11.65;;;9.68;;
77415;SDS011;66489;49.230;8.520;2023-04-08T08:08:57;13.18;;;10.20;;
77415;SDS011;66489;49.230;8.520;2023-04-08T08:11:24;12.38;;;10.18;;
77415;SDS011;66489;49.230;8.520;2023-04-08T08:13:52;13.23;;;9.65;;
77415;SDS011;66489;49.230;8.520;2023-04-08T08:16:19;12.27;;;9.80;;
77415;SDS011;66489;49.230;8.520;2023-04-08T08:18:46;12.15;;;9.63;;
77415;SDS011;66489;49.230;8.520;2023-04-08T08:21:12;12.75;;;10.05;;
77415;SDS011;66489;49.230;8.520;2023-04-08T08:23:39;13.32;;;9.98;;
77415;SDS011;66489;49.230;8.520;2023-04-08T08:26:07;11.25;;;9.55;;
77415;SDS011;66489;49.230;8.520;2023-04-08T08:28:37;12.15;;;10.20;;
77415;SDS011;66489;49.230;8.520;2023-04-08T08:31:04;13.45;;;9.73;;
77415;SDS011;66489;49.230;8.520;2023-04-08T08:33:31;11.77;;;9.43;;
77415;SDS011;66489;49.230;8.520;2023-04-08T08:35:58;12.55;;;9.90;;
77415;SDS011;66489;49.230;8.520;2023-04-08T08:38:25;12.18;;;9.98;;
77415;SDS011;66489;49.230;8.520;2023-04-08T08:40:55;14.27;;;10.30;;
77415;SDS011;66489;49.230;8.520;2023-04-08T08:43:23;15.95;;;10.48;;
77415;SDS011;66489;49.230;8.520;2023-04-08T08:45:50;13.70;;;10.43;;
77415;SDS011;66489;49.230;8.520;2023-04-08T08:48:17;12.50;;;10.55;;
77415;SDS011;66489;49.230;8.520;2023-04-08T08:50:44;13.20;;;10.50;;
77415;SDS011;66489;49.230;8.520;2023-04-08T08:53:11;12.57;;;10.20;;
77415;SDS011;66489;49.230;8.520;2023-04-08T08:55:38;12.00;;;10.00;;
77415;SDS011;66489;49.230;8.520;2023-04-08T08:58:25;12.32;;;9.85;;
77415;SDS011;66489;49.230;8.520;2023-04-08T09:00:53;13.82;;;10.35;;
77415;SDS011;66489;49.230;8.520;2023-04-08T09:03:20;12.68;;;9.50;;
77415;SDS011;66489;49.230;8.520;2023-04-08T09:08:22;11.82;;;9.63;;
77415;SDS011;66489;49.230;8.520;2023-04-08T09:10:51;13.85;;;10.50;;
77415;SDS011;66489;49.230;8.520;2023-04-08T09:13:18;12.48;;;10.18;;
77415;SDS011;66489;49.230;8.520;2023-04-08T09:16:18;12.48;;;10.43;;
77415;SDS011;66489;49.230;8.520;2023-04-08T09:18:39;12.45;;;10.43;;
77415;SDS011;66489;49.230;8.520;2023-04-08T09:21:08;12.73;;;9.73;;
77415;SDS011;66489;49.230;8.520;2023-04-08T09:23:41;12.73;;;9.70;;
77415;SDS011;66489;49.230;8.520;2023-04-08T09:26:15;13.05;;;10.55;;
77415;SDS011;66489;49.230;8.520;2023-04-08T09:28:43;15.48;;;10.38;;
77415;SDS011;66489;49.230;8.520;2023-04-08T09:31:18;11.75;;;9.70;;
77415;SDS011;66489;49.230;8.520;2023-04-08T09:33:47;15.48;;;10.30;;
77415;SDS011;66489;49.230;8.520;2023-04-08T09:36:15;13.25;;;10.77;;
77415;SDS011;66489;49.230;8.520;2023-04-08T09:38:42;12.30;;;10.20;;
77415;SDS011;66489;49.230;8.520;2023-04-08T09:41:12;14.35;;;10.55;;
77415;SDS011;66489;49.230;8.520;2023-04-08T09:43:42;12.95;;;10.32;;
77415;SDS011;66489;49.230;8.520;2023-04-08T09:46:15;12.23;;;10.15;;
77415;SDS011;66489;49.230;8.520;2023-04-08T09:48:54;12.15;;;10.13;;
77415;SDS011;66489;49.230;8.520;2023-04-08T09:51:24;13.35;;;10.52;;
77415;SDS011;66489;49.230;8.520;2023-04-08T09:54:01;12.98;;;10.35;;
77415;SDS011;66489;49.230;8.520;2023-04-08T09:56:29;13.63;;;10.48;;
77415;SDS011;66489;49.230;8.520;2023-04-08T09:59:02;13.75;;;10.38;;
77415;SDS011;66489;49.230;8.520;2023-04-08T10:01:36;13.88;;;10.35;;
77415;SDS011;66489;49.230;8.520;2023-04-08T10:04:07;14.10;;;10.10;;
77415;SDS011;66489;49.230;8.520;2023-04-08T10:06:35;14.00;;;10.85;;
77415;SDS011;66489;49.230;8.520;2023-04-08T10:09:03;15.25;;;10.18;;
77415;SDS011;66489;49.230;8.520;2023-04-08T10:11:30;12.07;;;10.23;;
77415;SDS011;66489;49.230;8.520;2023-04-08T10:13:56;16.15;;;10.43;;
77415;SDS011;66489;49.230;8.520;2023-04-08T10:16:23;12.75;;;10.40;;
77415;SDS011;66489;49.230;8.520;2023-04-08T10:18:53;13.23;;;9.63;;
77415;SDS011;66489;49.230;8.520;2023-04-08T10:21:39;12.45;;;9.85;;
77415;SDS011;66489;49.230;8.520;2023-04-08T10:24:13;11.68;;;9.82;;
77415;SDS011;66489;49.230;8.520;2023-04-08T10:26:40;13.40;;;10.10;;
77415;SDS011;66489;49.230;8.520;2023-04-08T10:31:44;12.40;;;10.05;;
77415;SDS011;66489;49.230;8.520;2023-04-08T10:34:21;13.20;;;10.30;;
77415;SDS011;66489;49.230;8.520;2023-04-08T10:36:52;11.05;;;9.77;;
77415;SDS011;66489;49.230;8.520;2023-04-08T10:39:21;12.75;;;9.80;;
77415;SDS011;66489;49.230;8.520;2023-04-08T10:41:48;14.63;;;10.10;;
77415;SDS011;66489;49.230;8.520;2023-04-08T10:46:46;13.02;;;10.93;;
77415;SDS011;66489;49.230;8.520;2023-04-08T10:49:14;13.88;;;10.93;;
77415;SDS011;66489;49.230;8.520;2023-04-08T10:51:42;15.05;;;10.90;;
77415;SDS011;66489;49.230;8.520;2023-04-08T10:54:10;12.57;;;10.75;;
77415;SDS011;66489;49.230;8.520;2023-04-08T10:56:45;12.85;;;10.50;;
77415;SDS011;66489;49.230;8.520;2023-04-08T10:59:14;12.75;;;10.52;;
77415;SDS011;66489;49.230;8.520;2023-04-08T11:01:52;15.05;;;10.77;;
77415;SDS011;66489;49.230;8.520;2023-04-08T11:04:19;15.50;;;11.30;;
77415;SDS011;66489;49.230;8.520;2023-04-08T11:06:46;14.35;;;10.95;;
77415;SDS011;66489;49.230;8.520;2023-04-08T11:09:12;14.57;;;10.82;;
77415;SDS011;66489;49.230;8.520;2023-04-08T11:11:40;15.02;;;11.02;;
77415;SDS011;66489;49.230;8.520;2023-04-08T11:14:07;14.40;;;11.48;;
77415;SDS011;66489;49.230;8.520;2023-04-08T11:16:35;13.82;;;10.38;;
77415;SDS011;66489;49.230;8.520;2023-04-08T11:19:03;13.67;;;11.07;;
77415;SDS011;66489;49.230;8.520;2023-04-08T11:21:31;16.73;;;11.75;;
77415;SDS011;66489;49.230;8.520;2023-04-08T11:24:04;13.98;;;11.05;;
77415;SDS011;66489;49.230;8.520;2023-04-08T11:26:32;14.40;;;11.38;;
77415;SDS011;66489;49.230;8.520;2023-04-08T11:28:59;13.15;;;11.25;;
77415;SDS011;66489;49.230;8.520;2023-04-08T11:31:26;13.73;;;11.32;;
77415;SDS011;66489;49.230;8.520;2023-04-08T11:33:53;13.75;;;11.38;;
77415;SDS011;66489;49.230;8.520;2023-04-08T11:36:23;12.90;;;10.98;;
77415;SDS011;66489;49.230;8.520;2023-04-08T11:38:52;12.60;;;10.65;;
77415;SDS011;66489;49.230;8.520;2023-04-08T11:41:19;17.83;;;11.43;;
77415;SDS011;66489;49.230;8.520;2023-04-08T11:43:51;15.18;;;11.13;;
77415;SDS011;66489;49.230;8.520;2023-04-08T11:46:18;14.05;;;11.20;;
77415;SDS011;66489;49.230;8.520;2023-04-08T11:51:25;14.57;;;11.30;;
77415;SDS011;66489;49.230;8.520;2023-04-08T11:53:53;12.45;;;10.65;;
77415;SDS011;66489;49.230;8.520;2023-04-08T11:56:22;13.30;;;11.30;;
77415;SDS011;66489;49.230;8.520;2023-04-08T11:58:49;14.90;;;11.55;;
77415;SDS011;66489;49.230;8.520;2023-04-08T12:01:16;12.93;;;10.95;;
77415;SDS011;66489;49.230;8.520;2023-04-08T12:03:55;16.48;;;11.70;;
77415;SDS011;66489;49.230;8.520;2023-04-08T12:06:27;14.07;;;11.45;;
77415;SDS011;66489;49.230;8.520;2023-04-08T12:08:54;14.60;;;11.07;;
77415;SDS011;66489;49.230;8.520;2023-04-08T12:11:21;14.40;;;11.15;;
77415;SDS011;66489;49.230;8.520;2023-04-08T12:13:48;14.20;;;11.65;;
77415;SDS011;66489;49.230;8.520;2023-04-08T12:16:16;14.00;;;11.20;;
77415;SDS011;66489;49.230;8.520;2023-04-08T12:18:43;13.13;;;11.20;;
77415;SDS011;66489;49.230;8.520;2023-04-08T12:21:10;14.73;;;11.10;;
77415;SDS011;66489;49.230;8.520;2023-04-08T12:23:36;15.05;;;10.60;;
77415;SDS011;66489;49.230;8.520;2023-04-08T12:26:03;14.13;;;11.32;;
77415;SDS011;66489;49.230;8.520;2023-04-08T12:28:30;13.73;;;10.80;;
77415;SDS011;66489;49.230;8.520;2023-04-08T12:30:56;12.95;;;10.93;;
77415;SDS011;66489;49.230;8.520;2023-04-08T12:33:23;13.63;;;11.23;;
77415;SDS011;66489;49.230;8.520;2023-04-08T12:35:49;14.23;;;11.00;;
77415;SDS011;66489;49.230;8.520;2023-04-08T12:38:16;13.27;;;10.60;;
77415;SDS011;66489;49.230;8.520;2023-04-08T12:40:43;13.52;;;10.90;;
77415;SDS011;66489;49.230;8.520;2023-04-08T12:43:09;13.27;;;10.68;;
77415;SDS011;66489;49.230;8.520;2023-04-08T12:45:36;11.82;;;9.70;;
77415;SDS011;66489;49.230;8.520;2023-04-08T12:48:03;9.77;;;8.13;;
77415;SDS011;66489;49.230;8.520;2023-04-08T12:50:30;10.73;;;8.27;;
77415;SDS011;66489;49.230;8.520;2023-04-08T12:52:56;9.48;;;7.78;;
77415;SDS011;66489;49.230;8.520;2023-04-08T12:55:23;12.23;;;9.75;;
77415;SDS011;66489;49.230;8.520;2023-04-08T12:57:51;8.55;;;6.43;;
77415;SDS011;66489;49.230;8.520;2023-04-08T13:00:17;7.95;;;6.82;;
77415;SDS011;66489;49.230;8.520;2023-04-08T13:02:45;8.48;;;7.60;;
77415;SDS011;66489;49.230;8.520;2023-04-08T13:05:12;10.18;;;8.90;;
77415;SDS011;66489;49.230;8.520;2023-04-08T13:07:38;10.38;;;8.00;;
77415;SDS011;66489;49.230;8.520;2023-04-08T13:10:06;9.25;;;7.72;;
77415;SDS011;66489;49.230;8.520;2023-04-08T13:12:33;10.23;;;8.07;;
77415;SDS011;66489;49.230;8.520;2023-04-08T13:15:00;10.15;;;8.52;;
77415;SDS011;66489;49.230;8.520;2023-04-08T13:17:26;10.80;;;8.60;;
77415;SDS011;66489;49.230;8.520;2023-04-08T13:19:53;12.25;;;9.30;;
77415;SDS011;66489;49.230;8.520;2023-04-08T13:22:20;11.20;;;8.75;;
77415;SDS011;66489;49.230;8.520;2023-04-08T13:24:46;10.88;;;8.85;;
77415;SDS011;66489;49.230;8.520;2023-04-08T13:27:13;11.88;;;8.90;;
77415;SDS011;66489;49.230;8.520;2023-04-08T13:29:40;10.88;;;9.40;;
77415;SDS011;66489;49.230;8.520;2023-04-08T13:32:06;11.98;;;8.93;;
77415;SDS011;66489;49.230;8.520;2023-04-08T13:34:33;11.10;;;9.05;;
77415;SDS011;66489;49.230;8.520;2023-04-08T13:37:00;10.88;;;9.38;;
77415;SDS011;66489;49.230;8.520;2023-04-08T13:39:26;10.35;;;8.98;;
77415;SDS011;66489;49.230;8.520;2023-04-08T13:41:53;13.52;;;9.80;;
77415;SDS011;66489;49.230;8.520;2023-04-08T13:44:19;11.75;;;9.80;;
77415;SDS011;66489;49.230;8.520;2023-04-08T13:46:46;10.52;;;9.43;;
77415;SDS011;66489;49.230;8.520;2023-04-08T13:49:12;11.32;;;10.07;;
77415;SDS011;66489;49.230;8.520;2023-04-08T13:51:39;10.98;;;9.27;;
77415;SDS011;66489;49.230;8.520;2023-04-08T13:54:06;13.10;;;10.43;;
77415;SDS011;66489;49.230;8.520;2023-04-08T13:56:33;12.80;;;10.93;;
77415;SDS011;66489;49.230;8.520;2023-04-08T13:58:59;12.27;;;10.35;;
77415;SDS011;66489;49.230;8.520;2023-04-08T14:01:26;11.80;;;10.25;;
77415;SDS011;66489;49.230;8.520;2023-04-08T14:03:54;10.55;;;9.45;;
77415;SDS011;66489;49.230;8.520;2023-04-08T14:06:21;11.60;;;9.73;;
77415;SDS011;66489;49.230;8.520;2023-04-08T14:08:47;12.00;;;9.75;;
77415;SDS011;66489;49.230;8.520;2023-04-08T14:11:14;11.75;;;10.15;;
77415;SDS011;66489;49.230;8.520;2023-04-08T14:13:41;11.48;;;9.55;;
77415;SDS011;66489;49.230;8.520;2023-04-08T14:16:07;10.30;;;9.07;;
77415;SDS011;66489;49.230;8.520;2023-04-08T14:18:34;10.30;;;8.50;;
77415;SDS011;66489;49.230;8.520;2023-04-08T14:21:00;10.43;;;9.00;;
77415;SDS011;66489;49.230;8.520;2023-04-08T14:23:27;10.90;;;8.52;;
77415;SDS011;66489;49.230;8.520;2023-04-08T14:25:54;9.80;;;8.52;;
77415;SDS011;66489;49.230;8.520;2023-04-08T14:28:20;10.98;;;9.18;;
77415;SDS011;66489;49.230;8.520;2023-04-08T14:30:47;11.57;;;9.70;;
77415;SDS011;66489;49.230;8.520;2023-04-08T14:33:14;11.10;;;9.35;;
77415;SDS011;66489;49.230;8.520;2023-04-08T14:35:40;11.35;;;9.85;;
77415;SDS011;66489;49.230;8.520;2023-04-08T14:38:07;10.50;;;9.32;;
77415;SDS011;66489;49.230;8.520;2023-04-08T14:40:35;11.68;;;10.30;;
77415;SDS011;66489;49.230;8.520;2023-04-08T14:43:03;10.90;;;9.50;;